createdAt,value
2017-11-28T00:00:07.435Z,10.09
2017-11-28T00:00:48.028Z,10.06
2017-11-28T00:01:28.542Z,10.04
2017-11-28T00:02:09.167Z,10.06
2017-11-28T00:02:49.696Z,10.06
2017-11-28T00:03:30.232Z,10.16
2017-11-28T00:04:10.833Z,10.04
2017-11-28T00:04:51.341Z,10.01
2017-11-28T00:05:31.914Z,9.98
2017-11-28T00:06:12.488Z,10.04
2017-11-28T00:06:53.062Z,9.92
2017-11-28T00:07:33.572Z,9.96
2017-11-28T00:08:14.204Z,9.99
2017-11-28T00:08:54.718Z,9.95
2017-11-28T00:09:35.238Z,9.96
2017-11-28T00:10:19.099Z,9.96
2017-11-28T00:10:59.609Z,9.95
2017-11-28T00:11:40.155Z,10.01
2017-11-28T00:12:20.706Z,9.96
2017-11-28T00:13:01.237Z,9.96
2017-11-28T00:13:41.744Z,9.77
2017-11-28T00:14:22.323Z,9.85
2017-11-28T00:15:06.288Z,9.85
2017-11-28T00:15:46.917Z,9.83
2017-11-28T00:16:27.511Z,9.92
2017-11-28T00:17:08.017Z,9.91
2017-11-28T00:17:49.264Z,9.95
2017-11-28T00:18:29.056Z,10.01
2017-11-28T00:19:11.417Z,9.86
2017-11-28T00:19:52.036Z,9.86
2017-11-28T00:20:32.512Z,9.89
2017-11-28T00:21:14.122Z,10.02
2017-11-28T00:21:54.649Z,10.02
2017-11-28T00:22:35.195Z,9.98
2017-11-28T00:23:15.746Z,9.99
2017-11-28T00:23:56.355Z,9.93
2017-11-28T00:24:36.885Z,10.04
2017-11-28T00:25:17.420Z,10.01
2017-11-28T00:25:57.998Z,10.07
2017-11-28T00:26:38.551Z,10.13
2017-11-28T00:27:19.090Z,10.13
2017-11-28T00:27:59.634Z,10.07
2017-11-28T00:28:40.213Z,10.09
2017-11-28T00:29:20.768Z,10.07
2017-11-28T00:30:01.292Z,10.01
2017-11-28T00:30:41.835Z,10.01
2017-11-28T00:31:22.384Z,10.1
2017-11-28T00:32:02.981Z,10.01
2017-11-28T00:32:43.503Z,10.02
2017-11-28T00:33:24.683Z,10.04
2017-11-28T00:34:05.226Z,10.04
2017-11-28T00:34:45.768Z,10.04
2017-11-28T00:35:26.361Z,9.99
2017-11-28T00:36:06.918Z,10.01
2017-11-28T00:36:47.422Z,9.96
2017-11-28T00:37:28.089Z,9.85
2017-11-28T00:38:11.732Z,9.85
2017-11-28T00:38:52.298Z,9.85
2017-11-28T00:39:32.868Z,9.92
2017-11-28T00:40:13.370Z,9.78
2017-11-28T00:40:53.925Z,9.78
2017-11-28T00:41:34.492Z,9.77
2017-11-28T00:42:15.040Z,9.7
2017-11-28T00:42:58.859Z,9.7
2017-11-28T00:43:40.280Z,9.73
2017-11-28T00:44:19.949Z,9.6
2017-11-28T00:45:00.518Z,9.65
2017-11-28T00:45:41.063Z,9.55
2017-11-28T00:46:21.649Z,9.59
2017-11-28T00:47:02.261Z,9.59
2017-11-28T00:47:42.736Z,9.56
2017-11-28T00:48:26.477Z,9.48
2017-11-28T00:49:07.088Z,9.48
2017-11-28T00:49:47.632Z,9.53
2017-11-28T00:50:28.241Z,9.58
2017-11-28T00:51:08.754Z,9.52
2017-11-28T00:51:49.333Z,9.49
2017-11-28T00:52:29.921Z,9.4
2017-11-28T00:53:10.486Z,9.4
2017-11-28T00:53:51.015Z,9.37
2017-11-28T00:54:31.577Z,9.38
2017-11-28T00:55:12.099Z,9.4
2017-11-28T00:55:52.683Z,9.31
2017-11-28T00:56:33.214Z,9.32
2017-11-28T00:57:13.798Z,9.34
2017-11-28T00:57:55.054Z,9.31
2017-11-28T00:58:35.652Z,9.27
2017-11-28T00:59:16.163Z,9.32
2017-11-28T00:59:56.756Z,9.3
2017-11-28T01:00:37.240Z,9.16
2017-11-28T01:01:17.843Z,9.22
2017-11-28T01:01:58.329Z,9.17
2017-11-28T01:02:38.936Z,9.16
2017-11-28T01:03:19.453Z,9.22
2017-11-28T01:04:00.047Z,9.08
2017-11-28T01:04:44.798Z,9.04
2017-11-28T01:05:24.432Z,9.13
2017-11-28T01:06:05.009Z,9.08
2017-11-28T01:06:45.533Z,9.1
2017-11-28T01:07:26.115Z,9.15
2017-11-28T01:08:09.867Z,9.1
2017-11-28T01:08:50.524Z,9.04
2017-11-28T01:09:31.051Z,9.08
2017-11-28T01:10:11.647Z,9.08
2017-11-28T01:10:52.185Z,9.1
2017-11-28T01:11:33.096Z,9.12
2017-11-28T01:12:13.693Z,9.08
2017-11-28T01:12:54.224Z,9.03
2017-11-28T01:13:37.196Z,9.1
2017-11-28T01:14:17.795Z,8.94
2017-11-28T01:14:58.305Z,9.06
2017-11-28T01:15:38.879Z,8.86
2017-11-28T01:16:19.433Z,8.98
2017-11-28T01:17:00.087Z,8.93
2017-11-28T01:17:40.552Z,8.85
2017-11-28T01:18:21.167Z,8.93
2017-11-28T01:19:01.751Z,8.89
2017-11-28T01:19:42.280Z,8.89
2017-11-28T01:20:22.816Z,8.93
2017-11-28T01:21:03.412Z,8.85
2017-11-28T01:21:43.941Z,8.91
2017-11-28T01:22:24.428Z,8.86
2017-11-28T01:23:04.994Z,8.91
2017-11-28T01:23:45.506Z,8.91
2017-11-28T01:24:26.050Z,8.89
2017-11-28T01:25:06.615Z,8.96
2017-11-28T01:25:47.133Z,8.91
2017-11-28T01:26:27.710Z,8.94
2017-11-28T01:27:08.205Z,8.94
2017-11-28T01:27:48.777Z,8.83
2017-11-28T01:28:32.685Z,8.86
2017-11-28T01:29:13.203Z,8.88
2017-11-28T01:29:53.763Z,8.78
2017-11-28T01:30:34.344Z,8.82
2017-11-28T01:31:14.894Z,8.82
2017-11-28T01:31:55.414Z,8.79
2017-11-28T01:32:39.427Z,8.8
2017-11-28T01:33:19.963Z,8.82
2017-11-28T01:34:00.488Z,8.82
2017-11-28T01:34:41.088Z,8.76
2017-11-28T01:35:21.607Z,8.78
2017-11-28T01:36:02.213Z,8.7
2017-11-28T01:36:46.717Z,8.67
2017-11-28T01:37:27.194Z,8.73
2017-11-28T01:38:07.734Z,8.6
2017-11-28T01:38:48.312Z,8.61
2017-11-28T01:39:28.855Z,8.47
2017-11-28T01:40:09.460Z,8.43
2017-11-28T01:40:49.983Z,8.28
2017-11-28T01:41:30.488Z,8.27
2017-11-28T01:42:11.044Z,8.18
2017-11-28T01:42:51.583Z,8.07
2017-11-28T01:43:32.177Z,7.89
2017-11-28T01:44:12.657Z,7.92
2017-11-28T01:44:53.280Z,7.85
2017-11-28T01:45:33.733Z,7.79
2017-11-28T01:46:14.325Z,7.95
2017-11-28T01:46:54.900Z,7.84
2017-11-28T01:47:35.413Z,7.81
2017-11-28T01:48:15.924Z,7.82
2017-11-28T01:48:56.474Z,7.74
2017-11-28T01:49:37.007Z,7.81
2017-11-28T01:50:17.584Z,7.74
2017-11-28T01:51:01.642Z,7.81
2017-11-28T01:51:42.170Z,7.82
2017-11-28T01:52:22.797Z,7.85
2017-11-28T01:53:03.276Z,7.85
2017-11-28T01:53:43.863Z,7.84
2017-11-28T01:54:27.824Z,7.81
2017-11-28T01:55:08.399Z,7.77
2017-11-28T01:55:48.980Z,7.76
2017-11-28T01:56:29.504Z,7.82
2017-11-28T01:57:10.062Z,7.85
2017-11-28T01:57:50.587Z,7.92
2017-11-28T01:58:31.184Z,8.02
2017-11-28T01:59:11.707Z,8.13
2017-11-28T01:59:55.009Z,8.2
2017-11-28T02:00:35.553Z,8.21
2017-11-28T02:01:16.088Z,8.32
2017-11-28T02:01:56.665Z,8.22
2017-11-28T02:02:37.169Z,8.27
2017-11-28T02:03:17.787Z,8.37
2017-11-28T02:03:58.257Z,8.39
2017-11-28T02:04:38.849Z,8.45
2017-11-28T02:05:19.441Z,8.47
2017-11-28T02:05:59.914Z,8.5
2017-11-28T02:06:40.488Z,8.49
2017-11-28T02:07:21.036Z,8.68
2017-11-28T02:08:01.532Z,8.7
2017-11-28T02:08:42.115Z,8.67
2017-11-28T02:09:22.635Z,8.75
2017-11-28T02:10:03.237Z,8.75
2017-11-28T02:10:43.723Z,8.76
2017-11-28T02:11:24.280Z,8.8
2017-11-28T02:12:04.862Z,8.88
2017-11-28T02:12:45.400Z,8.93
2017-11-28T02:13:26.011Z,8.88
2017-11-28T02:14:06.505Z,8.96
2017-11-28T02:14:47.073Z,8.98
2017-11-28T02:15:27.752Z,9.06
2017-11-28T02:16:11.714Z,8.98
2017-11-28T02:16:52.282Z,8.96
2017-11-28T02:17:32.824Z,8.89
2017-11-28T02:18:13.361Z,8.94
2017-11-28T02:18:53.909Z,9.04
2017-11-28T02:19:37.808Z,9.04
2017-11-28T02:20:18.305Z,9.01
2017-11-28T02:20:58.934Z,9.1
2017-11-28T02:21:39.456Z,9.08
2017-11-28T02:22:20.048Z,9.13
2017-11-28T02:23:00.578Z,9.04
2017-11-28T02:23:41.134Z,9.1
2017-11-28T02:24:21.703Z,9.01
2017-11-28T02:25:05.648Z,9.08
2017-11-28T02:25:46.211Z,9.15
2017-11-28T02:26:26.738Z,9.19
2017-11-28T02:27:07.318Z,9.23
2017-11-28T02:27:47.858Z,9.19
2017-11-28T02:28:28.404Z,9.24
2017-11-28T02:29:08.905Z,9.23
2017-11-28T02:29:49.518Z,9.12
2017-11-28T02:30:30.012Z,9.31
2017-11-28T02:31:10.617Z,9.22
2017-11-28T02:31:51.175Z,9.24
2017-11-28T02:32:31.734Z,9.23
2017-11-28T02:33:12.269Z,9.19
2017-11-28T02:36:05.474Z,9.2
2017-11-28T02:36:46.173Z,9.2
2017-11-28T02:37:26.707Z,9.2
2017-11-28T02:38:07.341Z,9.3
2017-11-28T02:38:47.989Z,9.27
2017-11-28T02:39:28.458Z,9.27
2017-11-28T02:40:11.906Z,9.23
2017-11-28T02:40:52.455Z,9.26
2017-11-28T02:41:32.978Z,9.24
2017-11-28T02:42:13.581Z,9.27
2017-11-28T02:42:54.159Z,9.16
2017-11-28T02:43:34.876Z,9.2
2017-11-28T02:44:15.365Z,9.24
2017-11-28T02:44:55.913Z,9.34
2017-11-28T02:45:36.573Z,9.38
2017-11-28T02:46:17.104Z,9.35
2017-11-28T02:46:57.542Z,9.34
2017-11-28T02:47:38.069Z,9.31
2017-11-28T02:48:18.600Z,9.35
2017-11-28T02:48:59.144Z,9.34
2017-11-28T02:49:39.656Z,9.32
2017-11-28T02:50:20.247Z,9.32
2017-11-28T02:51:00.797Z,9.3
2017-11-28T02:51:41.393Z,9.24
2017-11-28T02:52:21.948Z,9.3
2017-11-28T02:53:02.438Z,9.2
2017-11-28T02:53:43.042Z,9.19
2017-11-28T02:54:23.572Z,9.22
2017-11-28T02:55:04.163Z,9.19
2017-11-28T02:55:44.661Z,9.19
2017-11-28T02:56:25.208Z,9.17
2017-11-28T02:57:09.091Z,9.19
2017-11-28T02:57:49.698Z,9.13
2017-11-28T02:58:30.306Z,9.13
2017-11-28T02:59:10.794Z,9.15
2017-11-28T02:59:51.319Z,9.04
2017-11-28T03:00:31.934Z,9.04
2017-11-28T03:01:12.464Z,9.12
2017-11-28T03:01:56.142Z,9.12
2017-11-28T03:02:37.103Z,9.08
2017-11-28T03:03:17.652Z,9.04
2017-11-28T03:03:58.197Z,9.08
2017-11-28T03:04:38.702Z,9.06
2017-11-28T03:05:19.300Z,9.13
2017-11-28T03:05:59.812Z,9.12
2017-11-28T03:06:40.434Z,9.2
2017-11-28T03:07:23.970Z,9.19
2017-11-28T03:08:04.506Z,9.26
2017-11-28T03:08:45.097Z,9.3
2017-11-28T03:09:25.643Z,9.32
2017-11-28T03:10:06.217Z,9.31
2017-11-28T03:10:46.780Z,9.31
2017-11-28T03:11:27.294Z,9.31
2017-11-28T03:12:07.929Z,9.27
2017-11-28T03:12:48.421Z,9.27
2017-11-28T03:13:28.954Z,9.32
2017-11-28T03:14:09.499Z,9.3
2017-11-28T03:14:50.069Z,9.3
2017-11-28T03:15:30.620Z,9.31
2017-11-28T03:16:11.269Z,9.19
2017-11-28T03:16:51.750Z,9.26
2017-11-28T03:17:32.311Z,9.17
2017-11-28T03:18:12.904Z,9.19
2017-11-28T03:18:53.414Z,9.27
2017-11-28T03:19:33.958Z,9.31
2017-11-28T03:20:14.515Z,9.34
2017-11-28T03:20:55.068Z,9.24
2017-11-28T03:21:35.628Z,9.27
2017-11-28T03:22:16.169Z,9.31
2017-11-28T03:22:56.761Z,9.31
2017-11-28T03:23:37.317Z,9.35
2017-11-28T03:24:17.826Z,9.37
2017-11-28T03:24:58.441Z,9.17
2017-11-28T03:25:38.948Z,9.17
2017-11-28T03:26:23.299Z,9.15
2017-11-28T03:27:03.926Z,9.17
2017-11-28T03:27:44.421Z,9.23
2017-11-28T03:28:25.070Z,9.24
2017-11-28T03:29:09.394Z,9.17
2017-11-28T03:29:49.280Z,9.37
2017-11-28T03:30:29.827Z,9.27
2017-11-28T03:31:10.393Z,9.34
2017-11-28T03:31:50.921Z,9.34
2017-11-28T03:32:31.551Z,9.34
2017-11-28T03:33:12.033Z,9.31
2017-11-28T03:33:52.625Z,9.27
2017-11-28T03:34:36.297Z,9.27
2017-11-28T03:35:16.892Z,9.3
2017-11-28T03:35:57.463Z,9.34
2017-11-28T03:36:38.062Z,9.41
2017-11-28T03:37:18.559Z,9.44
2017-11-28T03:37:59.093Z,9.48
2017-11-28T03:38:39.618Z,9.45
2017-11-28T03:39:20.165Z,9.41
2017-11-28T03:40:00.700Z,9.49
2017-11-28T03:40:41.261Z,9.41
2017-11-28T03:41:21.842Z,9.34
2017-11-28T03:42:02.330Z,9.34
2017-11-28T03:42:42.864Z,9.23
2017-11-28T03:43:23.405Z,9.3
2017-11-28T03:44:03.923Z,9.31
2017-11-28T03:44:44.527Z,9.32
2017-11-28T03:45:25.061Z,9.35
2017-11-28T03:46:05.646Z,9.53
2017-11-28T03:46:46.130Z,9.53
2017-11-28T03:47:26.699Z,9.55
2017-11-28T03:48:07.217Z,9.59
2017-11-28T03:48:47.752Z,9.63
2017-11-28T03:49:31.418Z,9.52
2017-11-28T03:50:11.983Z,9.58
2017-11-28T03:50:52.594Z,9.56
2017-11-28T03:51:33.174Z,9.59
2017-11-28T03:52:13.625Z,9.59
2017-11-28T03:52:54.172Z,9.67
2017-11-28T03:53:38.189Z,9.6
2017-11-28T03:54:18.729Z,9.63
2017-11-28T03:54:59.273Z,9.65
2017-11-28T03:55:39.888Z,9.67
2017-11-28T03:56:20.446Z,9.52
2017-11-28T03:57:01.075Z,9.52
2017-11-28T03:57:44.361Z,9.53
2017-11-28T03:58:24.988Z,9.63
2017-11-28T03:59:05.565Z,9.5
2017-11-28T03:59:45.995Z,9.48
2017-11-28T04:00:26.587Z,9.63
2017-11-28T04:01:07.101Z,9.56
2017-11-28T04:01:47.581Z,9.68
2017-11-28T04:42:55.052Z,8.64
2017-11-28T04:43:35.433Z,8.64
2017-11-28T04:44:15.997Z,8.73
2017-11-28T04:44:56.226Z,8.61
2017-11-28T04:45:36.668Z,8.58
2017-11-28T04:46:17.023Z,8.6
2017-11-28T04:46:57.458Z,8.6
2017-11-28T04:47:37.839Z,8.54
2017-11-28T04:48:18.713Z,8.58
2017-11-28T04:48:59.188Z,8.58
2017-11-28T04:49:39.352Z,8.67
2017-11-28T04:50:19.746Z,8.7
2017-11-28T04:51:00.275Z,8.71
2017-11-28T04:51:40.614Z,8.7
2017-11-28T04:52:20.987Z,8.76
2017-11-28T04:53:01.620Z,8.73
2017-11-28T04:53:41.837Z,8.75
2017-11-28T04:54:22.242Z,8.79
2017-11-28T04:55:02.666Z,8.75
2017-11-28T04:55:43.417Z,8.76
2017-11-28T04:56:23.802Z,8.94
2017-11-28T04:57:06.571Z,8.89
2017-11-28T04:57:47.059Z,8.88
2017-11-28T04:58:27.497Z,8.82
2017-11-28T04:59:07.893Z,8.82
2017-11-28T04:59:48.587Z,8.76
2017-11-28T05:00:29.153Z,8.82
2017-11-28T05:01:09.926Z,8.82
2017-11-28T05:01:50.559Z,8.85
2017-11-28T05:02:31.110Z,8.83
2017-11-28T05:03:11.452Z,8.86
2017-11-28T05:03:51.913Z,8.91
2017-11-28T05:04:32.313Z,8.97
2017-11-28T05:05:12.722Z,8.97
2017-11-28T05:05:53.668Z,8.89
2017-11-28T05:06:33.923Z,8.98
2017-11-28T05:07:14.871Z,9.04
2017-11-28T05:07:55.276Z,9.08
2017-11-28T05:08:36.247Z,9.01
2017-11-28T05:09:17.893Z,9.12
2017-11-28T05:09:58.474Z,9.08
2017-11-28T05:10:39.265Z,9.03
2017-11-28T05:11:19.822Z,8.94
2017-11-28T05:12:00.591Z,8.88
2017-11-28T05:12:42.058Z,8.88
2017-11-28T05:13:22.679Z,8.98
2017-11-28T05:14:03.728Z,9.08
2017-11-28T05:14:44.399Z,8.94
2017-11-28T05:15:24.737Z,9.06
2017-11-28T05:16:05.478Z,9.06
2017-11-28T05:16:45.979Z,9.12
2017-11-28T05:17:26.284Z,9.1
2017-11-28T05:18:06.765Z,8.94
2017-11-28T05:18:47.164Z,9.08
2017-11-28T05:19:27.490Z,9.1
2017-11-28T05:20:08.026Z,9.08
2017-11-28T05:20:48.293Z,9.04
2017-11-28T05:21:28.711Z,9.06
2017-11-28T05:22:09.112Z,8.98
2017-11-28T05:22:49.597Z,9.08
2017-11-28T05:23:29.928Z,9.13
2017-11-28T05:24:10.417Z,9.08
2017-11-28T05:24:50.858Z,8.98
2017-11-28T05:25:31.896Z,9.04
2017-11-28T05:26:12.305Z,9.13
2017-11-28T05:26:53.029Z,9.08
2017-11-28T05:27:33.438Z,9.1
2017-11-28T05:28:13.877Z,9.04
2017-11-28T05:28:54.347Z,8.88
2017-11-28T05:29:34.869Z,9.06
2017-11-28T05:30:15.337Z,9.06
2017-11-28T05:30:55.589Z,8.97
2017-11-28T05:31:35.987Z,8.94
2017-11-28T05:32:16.848Z,8.96
2017-11-28T05:32:57.712Z,8.93
2017-11-28T05:33:38.015Z,8.89
2017-11-28T05:34:18.617Z,8.85
2017-11-28T05:34:59.004Z,8.88
2017-11-28T05:35:39.472Z,8.89
2017-11-28T05:36:19.911Z,8.93
2017-11-28T05:37:00.365Z,8.98
2017-11-28T05:37:40.758Z,8.98
2017-11-28T05:38:21.165Z,8.93
2017-11-28T05:39:01.638Z,8.89
2017-11-28T05:39:42.267Z,8.93
2017-11-28T05:40:22.470Z,8.91
2017-11-28T05:41:02.882Z,8.94
2017-11-28T05:41:43.513Z,8.93
2017-11-28T05:42:24.115Z,8.97
2017-11-28T05:43:04.748Z,8.91
2017-11-28T05:43:45.104Z,8.93
2017-11-28T05:44:25.524Z,8.94
2017-11-28T05:45:05.926Z,8.91
2017-11-28T05:45:46.299Z,8.97
2017-11-28T05:46:26.709Z,8.93
2017-11-28T05:47:07.175Z,8.94
2017-11-28T05:47:47.537Z,8.89
2017-11-28T05:48:28.523Z,8.91
2017-11-28T05:49:08.963Z,8.89
2017-11-28T05:49:49.336Z,8.88
2017-11-28T05:50:29.797Z,8.8
2017-11-28T05:52:20.120Z,8.8
2017-11-28T05:53:02.577Z,8.67
2017-11-28T05:53:42.729Z,8.64
2017-11-28T05:54:23.709Z,8.68
2017-11-28T05:55:04.131Z,8.52
2017-11-28T05:55:44.555Z,8.47
2017-11-28T05:56:25.068Z,8.6
2017-11-28T05:57:05.750Z,8.57
2017-11-28T05:57:46.192Z,8.54
2017-11-28T05:58:26.717Z,8.55
2017-11-28T05:59:07.538Z,8.5
2017-11-28T05:59:48.033Z,8.45
2017-11-28T06:00:28.407Z,8.43
2017-11-28T06:01:08.817Z,8.45
2017-11-28T06:01:49.243Z,8.45
2017-11-28T06:02:29.639Z,8.52
2017-11-28T06:03:10.078Z,8.52
2017-11-28T06:03:50.460Z,8.47
2017-11-28T06:04:30.874Z,8.5
2017-11-28T06:05:11.269Z,8.37
2017-11-28T06:05:51.719Z,8.4
2017-11-28T06:06:32.056Z,8.39
2017-11-28T06:07:12.455Z,8.39
2017-11-28T06:07:52.830Z,8.4
2017-11-28T06:08:33.973Z,8.39
2017-11-28T06:09:14.045Z,8.46
2017-11-28T06:09:54.451Z,8.49
2017-11-28T06:10:34.851Z,8.47
2017-11-28T06:11:15.257Z,8.47
2017-11-28T06:11:55.670Z,8.39
2017-11-28T06:12:36.089Z,8.39
2017-11-28T06:13:16.506Z,8.37
2017-11-28T06:13:56.918Z,8.28
2017-11-28T06:14:37.354Z,8.32
2017-11-28T06:15:17.709Z,8.32
2017-11-28T06:15:58.123Z,8.28
2017-11-28T06:16:38.570Z,8.25
2017-11-28T06:17:18.977Z,8.31
2017-11-28T06:17:59.363Z,8.34
2017-11-28T06:18:39.786Z,8.29
2017-11-28T06:19:20.169Z,8.27
2017-11-28T06:20:00.561Z,8.18
2017-11-28T06:20:40.999Z,8.27
2017-11-28T06:21:21.406Z,8.29
2017-11-28T06:22:02.171Z,8.27
2017-11-28T06:22:42.470Z,8.2
2017-11-28T06:23:22.940Z,8.17
2017-11-28T06:24:03.306Z,8.14
2017-11-28T06:24:43.754Z,8.13
2017-11-28T06:25:24.075Z,8.07
2017-11-28T06:26:04.444Z,8.04
2017-11-28T06:26:44.830Z,8.09
2017-11-28T06:27:25.331Z,8.02
2017-11-28T06:28:05.678Z,8.14
2017-11-28T06:28:46.084Z,8.17
2017-11-28T06:29:26.500Z,8.13
2017-11-28T06:30:06.904Z,8.06
2017-11-28T06:30:47.329Z,7.99
2017-11-28T06:31:27.707Z,8
2017-11-28T06:32:08.109Z,7.89
2017-11-28T06:32:48.487Z,7.94
2017-11-28T06:33:28.887Z,7.91
2017-11-28T06:34:09.322Z,7.89
2017-11-28T06:34:49.713Z,7.84
2017-11-28T06:35:30.153Z,7.77
2017-11-28T06:37:19.311Z,7.76
2017-11-28T06:38:01.724Z,7.74
2017-11-28T06:38:41.913Z,7.69
2017-11-28T06:39:22.293Z,7.6
2017-11-28T06:40:02.712Z,7.69
2017-11-28T06:40:43.123Z,7.57
2017-11-28T06:41:23.533Z,7.55
2017-11-28T06:42:03.949Z,7.57
2017-11-28T06:42:44.319Z,7.66
2017-11-28T06:43:24.718Z,7.58
2017-11-28T06:44:05.134Z,7.5
2017-11-28T06:44:45.584Z,7.48
2017-11-28T06:45:25.967Z,7.5
2017-11-28T06:46:06.366Z,7.47
2017-11-28T06:46:46.768Z,7.48
2017-11-28T06:47:27.289Z,7.47
2017-11-28T06:48:07.773Z,7.52
2017-11-28T06:48:48.155Z,7.37
2017-11-28T06:49:30.149Z,7.48
2017-11-28T06:50:10.481Z,7.57
2017-11-28T06:50:50.922Z,7.54
2017-11-28T06:51:31.284Z,7.57
2017-11-28T06:52:11.998Z,7.48
2017-11-28T06:52:53.401Z,7.6
2017-11-28T06:53:33.329Z,7.55
2017-11-28T06:54:13.798Z,7.52
2017-11-28T06:54:54.248Z,7.55
2017-11-28T06:55:35.461Z,7.57
2017-11-28T06:56:15.327Z,7.62
2017-11-28T06:56:56.281Z,7.67
2017-11-28T06:57:36.965Z,7.67
2017-11-28T06:58:18.386Z,7.58
2017-11-28T06:58:58.652Z,7.73
2017-11-28T06:59:39.430Z,7.71
2017-11-28T07:00:19.910Z,7.73
2017-11-28T07:01:00.414Z,7.71
2017-11-28T07:01:40.883Z,7.66
2017-11-28T07:02:21.849Z,7.67
2017-11-28T07:03:02.825Z,7.66
2017-11-28T07:03:42.624Z,7.57
2017-11-28T07:04:23.590Z,7.67
2017-11-28T07:05:04.063Z,7.62
2017-11-28T07:05:44.797Z,7.57
2017-11-28T07:06:25.159Z,7.57
2017-11-28T07:07:05.699Z,7.54
2017-11-28T07:07:46.374Z,7.6
2017-11-28T07:08:27.538Z,7.52
2017-11-28T07:09:08.261Z,7.52
2017-11-28T07:09:50.553Z,7.57
2017-11-28T07:10:30.481Z,7.55
2017-11-28T07:11:11.032Z,7.55
2017-11-28T07:11:51.770Z,7.57
2017-11-28T07:12:33.313Z,7.48
2017-11-28T07:13:13.801Z,7.41
2017-11-28T07:13:53.965Z,7.36
2017-11-28T07:14:34.528Z,7.44
2017-11-28T07:15:15.851Z,7.33
2017-11-28T07:15:56.806Z,7.32
2017-11-28T07:16:36.618Z,7.32
2017-11-28T07:17:17.100Z,7.36
2017-11-28T07:17:58.467Z,7.33
2017-11-28T07:18:38.820Z,7.33
2017-11-28T07:19:19.549Z,7.3
2017-11-28T07:20:00.816Z,7.33
2017-11-28T07:20:40.820Z,7.37
2017-11-28T07:21:21.572Z,7.33
2017-11-28T07:22:02.128Z,7.39
2017-11-28T07:22:42.971Z,7.39
2017-11-28T07:23:24.514Z,7.48
2017-11-28T07:24:04.386Z,7.48
2017-11-28T07:24:45.028Z,7.34
2017-11-28T07:25:26.304Z,7.42
2017-11-28T07:26:06.298Z,7.39
2017-11-28T07:26:46.782Z,7.37
2017-11-28T07:27:27.617Z,7.41
2017-11-28T07:28:08.057Z,7.37
2017-11-28T07:28:48.488Z,7.33
2017-11-28T07:29:32.997Z,7.26
2017-11-28T07:30:15.405Z,7.24
2017-11-28T07:30:56.794Z,7.23
2017-11-28T07:31:37.812Z,7.27
2017-11-28T07:32:17.688Z,7.23
2017-11-28T07:33:01.720Z,7.15
2017-11-28T07:33:42.745Z,7.07
2017-11-28T07:34:23.875Z,7.09
2017-11-28T07:35:04.927Z,7.01
2017-11-28T07:35:44.809Z,7.04
2017-11-28T07:36:26.335Z,7.07
2017-11-28T07:37:06.276Z,7.07
2017-11-28T07:37:47.339Z,7.05
2017-11-28T07:38:31.981Z,7.05
2017-11-28T07:39:13.696Z,6.99
2017-11-28T07:39:55.857Z,7.05
2017-11-28T07:40:37.477Z,7.05
2017-11-28T07:41:18.014Z,7.09
2017-11-28T07:41:58.406Z,7.14
2017-11-28T07:42:39.806Z,7.21
2017-11-28T07:43:20.054Z,7.36
2017-11-28T07:44:01.355Z,7.51
2017-11-28T07:44:41.745Z,7.67
2017-11-28T07:45:23.447Z,7.82
2017-11-28T07:46:03.897Z,7.94
2017-11-28T07:46:47.517Z,8.06
2017-11-28T07:47:27.203Z,8.25
2017-11-28T07:48:08.346Z,8.45
2017-11-28T07:48:48.847Z,8.58
2017-11-28T07:49:30.408Z,8.78
2017-11-28T07:50:11.332Z,9.15
2017-11-28T07:50:51.820Z,9.22
2017-11-28T07:51:31.779Z,9.32
2017-11-28T07:52:12.438Z,9.5
2017-11-28T07:52:53.976Z,9.71
2017-11-28T07:53:35.019Z,9.91
2017-11-28T07:54:17.609Z,9.98
2017-11-28T07:54:57.332Z,10.04
2017-11-28T07:55:39.838Z,10.24
2017-11-28T07:56:20.949Z,10.29
2017-11-28T07:57:01.750Z,10.46
2017-11-28T07:57:42.874Z,10.47
2017-11-28T07:58:25.983Z,10.58
2017-11-28T07:59:05.859Z,10.69
2017-11-28T07:59:49.727Z,10.63
2017-11-28T08:00:30.334Z,10.62
2017-11-28T08:01:11.625Z,10.69
2017-11-28T08:01:52.260Z,10.9
2017-11-28T08:02:34.039Z,10.76
2017-11-28T08:03:16.937Z,10.95
2017-11-28T08:03:56.446Z,10.91
2017-11-28T08:04:37.031Z,10.99
2017-11-28T08:05:19.523Z,11.09
2017-11-28T08:06:02.544Z,11.08
2017-11-28T08:06:43.811Z,11.23
2017-11-28T08:07:24.813Z,11.26
2017-11-28T08:08:05.450Z,11.39
2017-11-28T08:08:48.149Z,11.51
2017-11-28T08:09:30.359Z,11.54
2017-11-28T08:10:12.417Z,11.64
2017-11-28T08:10:53.042Z,11.62
2017-11-28T08:11:33.307Z,11.63
2017-11-28T08:12:13.813Z,11.64
2017-11-28T08:12:54.706Z,11.75
2017-11-28T08:13:34.990Z,11.74
2017-11-28T08:14:16.572Z,11.93
2017-11-28T08:14:56.314Z,11.97
2017-11-28T08:15:37.043Z,12.08
2017-11-28T08:16:17.886Z,12.26
2017-11-28T08:16:59.313Z,12.36
2017-11-28T08:17:39.282Z,12.43
2017-11-28T08:18:19.841Z,12.51
2017-11-28T08:19:00.509Z,12.56
2017-11-28T08:19:41.966Z,12.61
2017-11-28T08:20:22.298Z,12.74
2017-11-28T08:21:02.818Z,12.76
2017-11-28T08:21:43.618Z,12.73
2017-11-28T08:22:24.847Z,12.77
2017-11-28T08:23:05.531Z,12.77
2017-11-28T08:23:46.554Z,12.81
2017-11-28T08:24:26.941Z,12.73
2017-11-28T08:25:07.783Z,12.74
2017-11-28T08:25:48.144Z,12.77
2017-11-28T08:26:28.663Z,12.79
2017-11-28T08:27:09.671Z,12.95
2017-11-28T08:27:50.806Z,13.04
2017-11-28T08:28:31.296Z,13.17
2017-11-28T08:29:12.381Z,13.04
2017-11-28T08:29:53.242Z,13.12
2017-11-28T08:30:34.322Z,13.12
2017-11-28T08:31:14.568Z,13.04
2017-11-28T08:31:54.985Z,13.13
2017-11-28T08:32:35.526Z,13.13
2017-11-28T08:33:16.375Z,13.27
2017-11-28T08:33:56.873Z,13.27
2017-11-28T08:34:37.259Z,13.39
2017-11-28T08:35:17.814Z,13.48
2017-11-28T08:35:58.326Z,13.61
2017-11-28T08:36:38.582Z,13.46
2017-11-28T08:37:18.960Z,13.43
2017-11-28T08:37:59.422Z,13.51
2017-11-28T08:38:39.825Z,13.53
2017-11-28T08:39:20.217Z,13.54
2017-11-28T08:40:00.654Z,13.59
2017-11-28T08:40:41.101Z,13.61
2017-11-28T08:41:21.541Z,13.65
2017-11-28T08:42:01.956Z,13.65
2017-11-28T08:42:42.408Z,13.59
2017-11-28T08:43:22.829Z,13.75
2017-11-28T08:44:03.243Z,13.83
2017-11-28T08:44:43.689Z,13.96
2017-11-28T08:45:24.151Z,14.06
2017-11-28T08:46:04.547Z,14.12
2017-11-28T08:46:44.903Z,14.2
2017-11-28T08:47:25.693Z,14.3
2017-11-28T08:48:06.145Z,14.29
2017-11-28T08:48:46.542Z,14.45
2017-11-28T08:49:27.120Z,14.38
2017-11-28T08:50:07.570Z,14.54
2017-11-28T08:50:48.103Z,14.57
2017-11-28T08:51:28.509Z,14.39
2017-11-28T08:52:09.043Z,14.41
2017-11-28T08:52:49.411Z,14.31
2017-11-28T08:53:29.864Z,14.41
2017-11-28T08:54:10.280Z,14.31
2017-11-28T08:54:50.846Z,14.3
2017-11-28T08:55:31.349Z,14.27
2017-11-28T08:56:11.680Z,14.46
2017-11-28T08:56:52.495Z,14.38
2017-11-28T08:57:32.739Z,14.48
2017-11-28T08:58:13.241Z,14.41
2017-11-28T08:58:53.697Z,14.36
2017-11-28T08:59:34.147Z,14.24
2017-11-28T09:00:14.584Z,14.13
2017-11-28T09:00:55.421Z,14.16
2017-11-28T09:01:35.751Z,14.16
2017-11-28T09:02:16.614Z,14.16
2017-11-28T09:02:57.053Z,14.31
2017-11-28T09:03:37.615Z,14.34
2017-11-28T09:04:17.945Z,14.29
2017-11-28T09:04:58.551Z,14.42
2017-11-28T09:05:38.896Z,14.27
2017-11-28T09:06:19.589Z,14.39
2017-11-28T09:07:00.045Z,14.3
2017-11-28T09:07:40.683Z,14.29
2017-11-28T09:08:22.012Z,14.39
2017-11-28T09:09:02.474Z,14.29
2017-11-28T09:09:42.941Z,14.45
2017-11-28T09:10:23.500Z,14.56
2017-11-28T09:11:03.947Z,14.46
2017-11-28T09:11:44.381Z,14.6
2017-11-28T09:12:24.768Z,14.66
2017-11-28T09:18:09.662Z,15.04
2017-11-28T09:18:51.574Z,15.03
2017-11-28T09:19:34.135Z,15.09
2017-11-28T09:20:15.467Z,15
2017-11-28T09:20:58.644Z,14.87
2017-11-28T09:21:39.694Z,14.82
2017-11-28T09:22:22.357Z,14.91
2017-11-28T09:23:08.431Z,14.78
2017-11-28T09:23:51.346Z,14.67
2017-11-28T09:24:35.067Z,14.63
2017-11-28T09:25:16.039Z,14.59
2017-11-28T09:26:04.546Z,14.52
2017-11-28T09:26:47.555Z,14.59
2017-11-28T09:27:28.775Z,14.61
2017-11-28T09:28:09.222Z,14.71
2017-11-28T09:31:08.361Z,14.93
2017-11-28T09:31:47.766Z,14.93
2017-11-28T09:32:30.072Z,14.93
2017-11-28T09:33:10.696Z,15.01
2017-11-28T09:33:52.163Z,15.12
2017-11-28T09:34:35.779Z,15.2
2017-11-28T09:35:17.709Z,15.19
2017-11-28T09:35:58.133Z,15.33
2017-11-28T09:36:39.615Z,15.41
2017-11-28T09:37:24.525Z,15.43
2017-11-28T09:38:05.036Z,15.51
2017-11-28T09:38:45.488Z,15.4
2017-11-28T09:41:03.500Z,15.48
2017-11-28T09:41:49.444Z,15.34
2017-11-28T09:42:29.995Z,15.11
2017-11-28T09:43:12.937Z,15.19
2017-11-28T09:43:53.714Z,15.18
2017-11-28T09:44:34.141Z,15.16
2017-11-28T09:45:18.397Z,15.22
2017-11-28T09:46:04.391Z,15.18
2017-11-28T09:46:45.139Z,15.22
2017-11-28T09:47:26.726Z,15.13
2017-11-28T09:48:10.735Z,15.2
2017-11-28T09:48:55.275Z,15.18
2017-11-28T09:49:35.958Z,15.33
2017-11-28T09:50:16.434Z,15.35
2017-11-28T09:50:59.637Z,15.28
2017-11-28T09:53:13.788Z,15.52
2017-11-28T09:53:55.514Z,15.4
2017-11-28T09:54:40.239Z,15.43
2017-11-28T09:55:20.757Z,15.37
2017-11-28T09:56:01.390Z,15.16